createdAt,value
2023-03-28T01:36:57.272Z,0.04
2023-03-28T01:38:56.780Z,0.02
2023-03-28T02:28:48.657Z,0.03
2023-03-28T02:31:04.764Z,0.04
2023-03-28T02:33:07.143Z,0.02
2023-03-28T04:14:07.585Z,0.03
2023-03-28T04:21:10.937Z,0.04
2023-03-28T04:24:06.477Z,0.05
2023-03-28T04:26:47.895Z,0.07
2023-03-28T04:29:15.165Z,0.1
2023-03-28T04:31:28.489Z,0.15
2023-03-28T04:33:27.507Z,0.22
2023-03-28T04:36:15.053Z,0.33
2023-03-28T04:38:48.463Z,0.49
2023-03-28T04:41:08.072Z,0.75
2023-03-28T04:43:13.556Z,1.06
2023-03-28T04:46:07.162Z,1.77
2023-03-28T04:48:46.947Z,2.8
2023-03-28T04:51:12.610Z,4.32
2023-03-28T04:53:24.148Z,6.57
2023-03-28T04:55:23.503Z,9.08
2023-03-28T04:58:07.796Z,14.47
2023-03-28T05:00:39.571Z,20.7
2023-03-28T05:02:57.272Z,27.16
2023-03-28T05:05:01.193Z,37.34
2023-03-28T05:07:52.894Z,52.74
2023-03-28T05:10:30.590Z,68.28
2023-03-28T05:12:54.509Z,86.24
2023-03-28T05:15:04.205Z,102.6
2023-03-28T05:18:02.136Z,130.64
2023-03-28T05:20:46.065Z,164
2023-03-28T05:23:16.016Z,190
2023-03-28T05:25:31.477Z,218.8
2023-03-28T05:27:33.486Z,242.7
2023-03-28T05:30:23.487Z,280
2023-03-28T05:32:59.386Z,310.9
2023-03-28T05:35:21.274Z,343.2
2023-03-28T05:37:29.356Z,374.2
2023-03-28T05:40:25.624Z,411.5
2023-03-28T05:43:07.491Z,440.9
2023-03-28T05:45:35.695Z,469.4
2023-03-28T05:47:49.647Z,496
2023-03-28T05:49:49.606Z,517.6
2023-03-28T05:52:37.853Z,554
2023-03-28T05:55:12.055Z,595.2
2023-03-28T05:57:32.179Z,634.4
2023-03-28T05:59:38.445Z,641.1
2023-03-28T06:02:32.885Z,665.2
2023-03-28T06:05:13.079Z,693.4
2023-03-28T06:07:42.422Z,715.2
2023-03-28T06:09:51.610Z,732.1
2023-03-28T06:11:49.989Z,745.6
2023-03-28T06:14:36.388Z,776.3
2023-03-28T06:17:08.542Z,795.8
2023-03-28T06:19:26.932Z,827.2
2023-03-28T06:21:31.443Z,838.7
2023-03-28T06:24:24.949Z,873.2
2023-03-28T06:27:02.984Z,883.8
2023-03-28T06:29:27.552Z,894.4
2023-03-28T06:31:38.334Z,926.7
2023-03-28T06:33:34.967Z,955.5
2023-03-28T06:36:19.781Z,1014.4
2023-03-28T06:38:50.578Z,1056.3
2023-03-28T06:41:07.376Z,1089.2
2023-03-28T06:43:10.087Z,1115.5
2023-03-28T06:46:00.938Z,1150
2023-03-28T06:48:37.978Z,1173.1
2023-03-28T06:51:01.225Z,1207.3
2023-03-28T06:53:10.085Z,1234.8
2023-03-28T06:56:07.409Z,1268.8
2023-03-28T06:58:50.550Z,1295.6
2023-03-28T07:01:19.560Z,1314.5
2023-03-28T07:03:34.507Z,1336.9
2023-03-28T07:05:35.637Z,1354.8
2023-03-28T07:08:24.571Z,1383.6
2023-03-28T07:10:59.886Z,1417.6
2023-03-28T07:13:20.884Z,1427.8
2023-03-28T07:15:27.982Z,1439.3
2023-03-28T07:18:23.318Z,1461.7
2023-03-28T07:21:04.946Z,1486
2023-03-28T07:23:32.332Z,1495.6
2023-03-28T07:25:45.648Z,1509.7
2023-03-28T07:27:45.095Z,1520
2023-03-28T07:30:32.623Z,1559.6
2023-03-28T07:33:17.100Z,1590.4
2023-03-28T07:35:25.474Z,1614
2023-03-28T07:37:31.003Z,1630
2023-03-28T07:40:24.741Z,1648
2023-03-28T07:43:04.473Z,1676
2023-03-28T07:45:30.269Z,1683
2023-03-28T07:47:41.898Z,1693
2023-03-28T07:49:39.489Z,1708
2023-03-28T07:52:25.759Z,1754
2023-03-28T07:54:57.521Z,1755
2023-03-28T07:57:15.350Z,1783
2023-03-28T07:59:18.824Z,1836
2023-03-28T08:02:11.217Z,1955
2023-03-28T08:04:48.851Z,1986
2023-03-28T08:07:12.617Z,1964
2023-03-28T08:09:22.589Z,1880
2023-03-28T08:12:20.840Z,1902
2023-03-28T08:15:04.892Z,1918
2023-03-28T08:17:35.041Z,2018
2023-03-28T08:19:51.091Z,2072
2023-03-28T08:21:53.022Z,2176
2023-03-28T08:24:43.429Z,2120
2023-03-28T08:27:19.610Z,2003
2023-03-28T08:29:41.811Z,1877
2023-03-28T08:31:50.130Z,2007
2023-03-28T08:34:46.538Z,2060
2023-03-28T08:37:28.793Z,2161
2023-03-28T08:39:57.094Z,2156
2023-03-28T08:42:11.492Z,2153
2023-03-28T08:44:11.713Z,2189
2023-03-28T08:47:00.251Z,2275
2023-03-28T08:49:34.854Z,2257
2023-03-28T08:51:54.928Z,2229
2023-03-28T08:54:01.260Z,2220
2023-03-28T08:56:56.108Z,2307
2023-03-28T08:59:36.754Z,2303
2023-03-28T09:02:03.358Z,1266.8
2023-03-28T09:04:15.876Z,1863
2023-03-28T09:06:14.298Z,1293.4
2023-03-28T09:09:01.050Z,1346.5
2023-03-28T09:11:33.636Z,2326
2023-03-28T09:13:52.450Z,1581.4
2023-03-28T09:15:57.171Z,2352
2023-03-28T09:18:50.049Z,2630
2023-03-28T09:21:28.998Z,2850
2023-03-28T09:23:53.814Z,3144
2023-03-28T09:26:04.541Z,3147
2023-03-28T09:28:01.420Z,3029
2023-03-28T09:30:46.685Z,2411
2023-03-28T09:33:17.409Z,2846
2023-03-28T09:35:34.279Z,2777
2023-03-28T09:37:37.135Z,2929
2023-03-28T09:40:28.276Z,1635.8
2023-03-28T09:43:04.867Z,3016
2023-03-28T09:45:28.074Z,2210
2023-03-28T09:47:37.057Z,3189
2023-03-28T09:50:34.242Z,2677
2023-03-28T09:53:17.556Z,3274
2023-03-28T09:55:54.730Z,3287
2023-03-28T09:58:01.900Z,3668
2023-03-28T10:00:03.064Z,3276
2023-03-28T10:02:52.474Z,2183
2023-03-28T10:05:27.749Z,2752
2023-03-28T10:07:48.888Z,3125
2023-03-28T10:09:56.163Z,3315
2023-03-28T10:12:51.572Z,3418
2023-03-28T10:15:32.951Z,3019
2023-03-28T10:18:00.396Z,3091
2023-03-28T10:20:13.505Z,3504
2023-03-28T10:22:12.675Z,3521
2023-03-28T10:25:00.199Z,3594
2023-03-28T10:27:33.508Z,3338
2023-03-28T10:29:52.754Z,3427
2023-03-28T10:31:58.166Z,3727
2023-03-28T10:34:51.246Z,3040
2023-03-28T10:37:30.642Z,4320
2023-03-28T10:39:56.073Z,3864
2023-03-28T10:42:07.391Z,4007
2023-03-28T10:44:04.758Z,3646
2023-03-28T10:46:50.275Z,5493
2023-03-28T10:49:21.894Z,5098
2023-03-28T10:51:39.418Z,3988
2023-03-28T10:53:42.930Z,4281
2023-03-28T10:56:34.634Z,3891
2023-03-28T10:59:12.330Z,3568
2023-03-28T11:01:35.958Z,3438
2023-03-28T11:03:45.769Z,4064
2023-03-28T11:06:43.502Z,4094
2023-03-28T11:09:27.216Z,3101
2023-03-28T11:11:56.804Z,4266
2023-03-28T11:14:12.556Z,3507
2023-03-28T11:16:14.253Z,4011
2023-03-28T11:19:04.101Z,4433
2023-03-28T11:21:39.943Z,4483
2023-03-28T11:24:01.767Z,4912
2023-03-28T11:26:09.132Z,5573
2023-03-28T11:29:05.181Z,5029
2023-03-28T11:31:47.218Z,4555
2023-03-28T11:34:15.064Z,4910
2023-03-28T11:36:28.801Z,3783
2023-03-28T11:38:28.808Z,3654
2023-03-28T11:41:16.871Z,3677
2023-03-28T11:43:50.854Z,4252
2023-03-28T11:46:11.174Z,4586
2023-03-28T11:48:17.139Z,4482
2023-03-28T11:51:11.317Z,4135
2023-03-28T11:53:51.787Z,4811
2023-03-28T11:56:17.819Z,5013
2023-03-28T11:58:29.894Z,5509
2023-03-28T12:00:33.505Z,5004
2023-03-28T12:03:14.648Z,5132
2023-03-28T12:05:27.955Z,4963
2023-03-28T12:07:27.206Z,4599
2023-03-28T12:10:14.536Z,4313
2023-03-28T12:12:47.935Z,4089
2023-03-28T12:15:07.310Z,4222
2023-03-28T12:17:12.241Z,4235
2023-03-28T12:20:06.017Z,4323
2023-03-28T12:22:45.483Z,4682
2023-03-28T12:25:10.879Z,4587
2023-03-28T12:27:22.415Z,4674
2023-03-28T12:29:19.876Z,4686
2023-03-28T12:32:05.328Z,4631
2023-03-28T12:34:36.821Z,4433
2023-03-28T12:36:54.422Z,4455
2023-03-28T12:38:57.939Z,4391
2023-03-28T12:41:49.491Z,4303
2023-03-28T12:44:27.344Z,4299
2023-03-28T12:46:51.087Z,4093
2023-03-28T12:49:00.745Z,4081
2023-03-28T12:51:58.648Z,4074
2023-03-28T12:54:42.578Z,3973
2023-03-28T12:57:13.262Z,3880
2023-03-28T12:59:28.050Z,3987
2023-03-28T13:01:29.969Z,4038
2023-03-28T13:04:19.990Z,3874
2023-03-28T13:06:56.064Z,3732
2023-03-28T13:09:17.598Z,3527
2023-03-28T13:11:25.608Z,3438
2023-03-28T13:14:21.715Z,3504
2023-03-28T13:17:03.912Z,3521
2023-03-28T13:19:32.109Z,3169
2023-03-28T13:21:46.206Z,3252
2023-03-28T13:23:46.385Z,3196
2023-03-28T13:26:34.700Z,3009
2023-03-28T13:29:08.988Z,3155
2023-03-28T13:31:29.175Z,3425
2023-03-28T13:33:35.586Z,3375
2023-03-28T13:36:29.616Z,3677
2023-03-28T13:39:09.802Z,4043
2023-03-28T13:41:36.263Z,4353
2023-03-28T13:43:48.644Z,4623
2023-03-28T13:45:46.901Z,4736
2023-03-28T13:48:33.593Z,4776
2023-03-28T13:51:06.024Z,4906
2023-03-28T13:53:25.555Z,4806
2023-03-28T13:55:29.067Z,4704
2023-03-28T13:58:21.763Z,4386
2023-03-28T14:01:00.189Z,4107
2023-03-28T14:03:24.543Z,4007
2023-03-28T14:05:35.216Z,3797
2023-03-28T14:07:31.784Z,3150
2023-03-28T14:10:16.563Z,3383
2023-03-28T14:12:47.405Z,3312
2023-03-28T14:15:04.244Z,3313
2023-03-28T14:17:06.891Z,3569
2023-03-28T14:19:58.027Z,3264
2023-03-28T14:22:36.239Z,2694
2023-03-28T14:24:57.843Z,3176
2023-03-28T14:27:06.803Z,3201
2023-03-28T14:30:03.772Z,3994
2023-03-28T14:32:54.697Z,3287
2023-03-28T14:35:15.626Z,2587
2023-03-28T14:37:30.759Z,2517
2023-03-28T14:39:31.841Z,2882
2023-03-28T14:42:21.054Z,2707
2023-03-28T14:44:56.484Z,2812
2023-03-28T14:47:17.604Z,3352
2023-03-28T14:49:24.698Z,3379
2023-03-28T14:52:19.788Z,3128
2023-03-28T14:55:01.245Z,2740
2023-03-28T14:57:28.556Z,2795
2023-03-28T14:59:41.825Z,2312
2023-03-28T15:01:41.210Z,2508
2023-03-28T15:04:28.611Z,3102
2023-03-28T15:07:01.897Z,2684
2023-03-28T15:09:21.289Z,2471
2023-03-28T15:11:26.690Z,2110
2023-03-28T15:14:20.147Z,2241
2023-03-28T15:16:59.721Z,2153
2023-03-28T15:19:25.160Z,2257
2023-03-28T15:21:36.582Z,2808
2023-03-28T15:23:34.161Z,2796
2023-03-28T15:26:19.740Z,2055
2023-03-28T15:28:51.350Z,1810
2023-03-28T15:31:08.824Z,1841
2023-03-28T15:33:12.498Z,2110
2023-03-28T15:36:04.332Z,1911
2023-03-28T15:38:42.255Z,1941
2023-03-28T15:41:05.813Z,1843
2023-03-28T15:43:15.184Z,1854
2023-03-28T15:46:13.116Z,1849
2023-03-28T15:48:57.119Z,1658
2023-03-28T15:51:27.042Z,1520
2023-03-28T15:53:42.920Z,1261.7
2023-03-28T15:55:44.884Z,1187.5
2023-03-28T15:58:34.964Z,942.4
2023-03-28T16:01:10.970Z,1112.6
2023-03-28T16:03:33.025Z,1274.5
2023-03-28T16:05:40.868Z,1300.8
2023-03-28T16:08:37.040Z,1274.5
2023-03-28T16:11:19.050Z,1159
2023-03-28T16:13:47.271Z,1192.6
2023-03-28T16:16:01.437Z,1135.3
2023-03-28T16:18:01.281Z,1077.1
2023-03-28T16:20:49.524Z,1067.5
2023-03-28T16:23:23.631Z,1021.1
2023-03-28T16:25:43.715Z,1138.8
2023-03-28T16:27:49.958Z,1026.5
2023-03-28T16:30:44.282Z,872.3
2023-03-28T16:33:24.562Z,903
2023-03-28T16:35:50.359Z,960.6
2023-03-28T16:38:02.653Z,1013.4
2023-03-28T16:40:02.841Z,993.2
2023-03-28T16:42:47.108Z,890.2
2023-03-28T16:45:19.556Z,815
2023-03-28T16:47:37.899Z,761.6
2023-03-28T16:49:42.241Z,657.2
2023-03-28T16:52:34.956Z,529.9
2023-03-28T16:55:13.626Z,490.8
2023-03-28T16:57:38.084Z,463.8
2023-03-28T16:59:48.723Z,446
2023-03-28T17:01:45.293Z,441.7
2023-03-28T17:04:30.066Z,435.5
2023-03-28T17:07:00.420Z,401.4
2023-03-28T17:09:17.127Z,386.4
2023-03-28T17:11:19.745Z,356
2023-03-28T17:14:15.659Z,349.9
2023-03-28T17:16:47.491Z,327.1
2023-03-28T17:19:10.196Z,315
2023-03-28T17:21:19.110Z,302.8
2023-03-28T17:24:16.106Z,288.1
2023-03-28T17:26:58.854Z,262
2023-03-28T17:29:27.875Z,219.6
2023-03-28T17:31:42.714Z,192.3
2023-03-28T17:33:43.692Z,179
2023-03-28T17:36:32.772Z,158.84
2023-03-28T17:39:07.804Z,133.8
2023-03-28T17:41:28.901Z,112.12
2023-03-28T17:43:35.986Z,95.2
2023-03-28T17:46:31.091Z,65.52
2023-03-28T17:49:12.404Z,47.1
2023-03-28T17:51:39.658Z,37.28
2023-03-28T17:53:52.852Z,30.3
2023-03-28T17:55:52.121Z,24.18
2023-03-28T17:58:39.528Z,16.3
2023-03-28T18:01:12.873Z,11.09
2023-03-28T18:03:32.258Z,7.51
2023-03-28T18:05:37.561Z,5.43
2023-03-28T18:08:31.070Z,3.23
2023-03-28T18:11:10.399Z,1.88
2023-03-28T18:13:35.898Z,1.18
2023-03-28T18:15:47.341Z,0.82
2023-03-28T18:17:44.317Z,0.58
2023-03-28T18:20:29.953Z,0.38
2023-03-28T18:23:01.440Z,0.25
2023-03-28T18:25:18.956Z,0.17
2023-03-28T18:27:22.589Z,0.13
2023-03-28T18:30:14.341Z,0.09
2023-03-28T18:32:52.060Z,0.07
2023-03-28T18:35:15.591Z,0.06
2023-03-28T18:40:23.159Z,0.05
2023-03-28T18:47:52.559Z,0.06
2023-03-28T18:49:54.224Z,0.05
2023-03-28T19:34:10.314Z,0.06
2023-03-28T19:39:28.694Z,0.07
2023-03-28T19:41:47.190Z,0.09
2023-03-28T19:43:51.623Z,0.1
2023-03-28T19:46:44.173Z,0.07
2023-03-28T19:49:22.763Z,0.05
2023-03-28T20:08:19.255Z,0.06
2023-03-28T20:21:07.582Z,0.05
2023-03-28T20:35:37.444Z,0.06
2023-03-28T20:37:44.522Z,0.05
2023-03-28T20:43:20.698Z,0.06
2023-03-28T21:02:38.428Z,0.05
2023-03-28T21:14:37.517Z,0.09
2023-03-28T21:17:09.211Z,0.05
2023-03-28T21:21:30.214Z,0.06
2023-03-28T21:24:21.972Z,0.05
2023-03-28T21:26:59.616Z,0.06
2023-03-28T21:31:32.983Z,0.05
2023-03-28T21:41:59.970Z,0.06
2023-03-28T21:44:01.288Z,0.05
2023-03-28T21:46:51.023Z,0.06
2023-03-28T22:04:16.602Z,0.05
2023-03-28T22:21:39.248Z,0.04
2023-03-28T22:38:01.931Z,0.03
2023-03-28T22:42:54.909Z,0.04
2023-03-28T22:52:58.979Z,0.05
2023-03-28T22:55:10.636Z,0.04
2023-03-28T22:57:08.252Z,0.05
2023-03-28T23:02:25.460Z,0.04
2023-03-28T23:06:46.864Z,0.05
2023-03-28T23:14:40.406Z,0.04
2023-03-28T23:19:50.041Z,0.05
